sensor_id;sensor_type;location;lat;lon;timestamp;P1;durP1;ratioP1;P2;durP2;ratioP2
26516;SDS011;14190;51.342;6.338;2022-12-18T00:01:13;55.87;;;25.50;;
26516;SDS011;14190;51.342;6.338;2022-12-18T00:03:35;52.43;;;25.12;;
26516;SDS011;14190;51.342;6.338;2022-12-18T00:06:02;54.73;;;25.25;;
26516;SDS011;14190;51.342;6.338;2022-12-18T00:08:30;51.90;;;23.38;;
26516;SDS011;14190;51.342;6.338;2022-12-18T00:11:05;55.38;;;22.67;;
26516;SDS011;14190;51.342;6.338;2022-12-18T00:13:32;64.03;;;25.55;;
26516;SDS011;14190;51.342;6.338;2022-12-18T00:16:03;53.87;;;23.50;;
26516;SDS011;14190;51.342;6.338;2022-12-18T00:18:31;53.80;;;23.35;;
26516;SDS011;14190;51.342;6.338;2022-12-18T00:20:59;53.33;;;22.27;;
26516;SDS011;14190;51.342;6.338;2022-12-18T00:23:27;46.63;;;21.60;;
26516;SDS011;14190;51.342;6.338;2022-12-18T00:25:58;52.53;;;22.37;;
26516;SDS011;14190;51.342;6.338;2022-12-18T00:28:24;48.87;;;22.00;;
26516;SDS011;14190;51.342;6.338;2022-12-18T00:30:58;44.60;;;20.48;;
26516;SDS011;14190;51.342;6.338;2022-12-18T00:33:20;48.65;;;21.55;;
26516;SDS011;14190;51.342;6.338;2022-12-18T00:35:47;46.77;;;20.05;;
26516;SDS011;14190;51.342;6.338;2022-12-18T00:38:15;47.85;;;19.67;;
26516;SDS011;14190;51.342;6.338;2022-12-18T00:40:43;44.30;;;20.08;;
26516;SDS011;14190;51.342;6.338;2022-12-18T00:43:12;48.50;;;19.87;;
26516;SDS011;14190;51.342;6.338;2022-12-18T00:45:39;53.95;;;21.05;;
26516;SDS011;14190;51.342;6.338;2022-12-18T00:48:07;42.65;;;18.98;;
26516;SDS011;14190;51.342;6.338;2022-12-18T00:50:34;50.90;;;20.65;;
26516;SDS011;14190;51.342;6.338;2022-12-18T00:53:02;42.43;;;19.57;;
26516;SDS011;14190;51.342;6.338;2022-12-18T00:55:29;46.30;;;18.20;;
26516;SDS011;14190;51.342;6.338;2022-12-18T00:57:57;46.60;;;20.72;;
26516;SDS011;14190;51.342;6.338;2022-12-18T01:00:24;44.53;;;19.40;;
26516;SDS011;14190;51.342;6.338;2022-12-18T01:02:52;45.28;;;18.87;;
26516;SDS011;14190;51.342;6.338;2022-12-18T01:05:19;38.15;;;16.95;;
26516;SDS011;14190;51.342;6.338;2022-12-18T01:07:46;41.77;;;17.75;;
26516;SDS011;14190;51.342;6.338;2022-12-18T01:10:14;41.70;;;18.57;;
26516;SDS011;14190;51.342;6.338;2022-12-18T01:12:41;38.02;;;18.50;;
26516;SDS011;14190;51.342;6.338;2022-12-18T01:15:10;40.00;;;18.20;;
26516;SDS011;14190;51.342;6.338;2022-12-18T01:17:38;42.23;;;17.63;;
26516;SDS011;14190;51.342;6.338;2022-12-18T01:20:06;34.83;;;16.77;;
26516;SDS011;14190;51.342;6.338;2022-12-18T01:22:35;42.20;;;17.12;;
26516;SDS011;14190;51.342;6.338;2022-12-18T01:25:03;40.17;;;17.10;;
26516;SDS011;14190;51.342;6.338;2022-12-18T01:27:31;37.25;;;17.50;;
26516;SDS011;14190;51.342;6.338;2022-12-18T01:29:59;37.17;;;17.65;;
26516;SDS011;14190;51.342;6.338;2022-12-18T01:32:29;39.23;;;18.15;;
26516;SDS011;14190;51.342;6.338;2022-12-18T01:34:56;38.73;;;17.85;;
26516;SDS011;14190;51.342;6.338;2022-12-18T01:37:25;38.97;;;17.10;;
26516;SDS011;14190;51.342;6.338;2022-12-18T01:39:53;41.40;;;20.00;;
26516;SDS011;14190;51.342;6.338;2022-12-18T01:42:21;42.30;;;17.75;;
26516;SDS011;14190;51.342;6.338;2022-12-18T01:47:25;39.35;;;18.40;;
26516;SDS011;14190;51.342;6.338;2022-12-18T01:49:53;36.17;;;17.10;;
26516;SDS011;14190;51.342;6.338;2022-12-18T01:52:21;41.13;;;18.55;;
26516;SDS011;14190;51.342;6.338;2022-12-18T01:54:49;32.83;;;16.40;;
26516;SDS011;14190;51.342;6.338;2022-12-18T01:57:18;37.03;;;18.50;;
26516;SDS011;14190;51.342;6.338;2022-12-18T01:59:47;34.03;;;17.77;;
26516;SDS011;14190;51.342;6.338;2022-12-18T02:02:15;44.20;;;18.55;;
26516;SDS011;14190;51.342;6.338;2022-12-18T02:04:43;40.15;;;18.20;;
26516;SDS011;14190;51.342;6.338;2022-12-18T02:07:13;33.38;;;17.82;;
26516;SDS011;14190;51.342;6.338;2022-12-18T02:09:50;34.40;;;16.82;;
26516;SDS011;14190;51.342;6.338;2022-12-18T02:12:18;42.83;;;17.77;;
26516;SDS011;14190;51.342;6.338;2022-12-18T02:14:43;40.52;;;17.50;;
26516;SDS011;14190;51.342;6.338;2022-12-18T02:17:15;41.35;;;18.77;;
26516;SDS011;14190;51.342;6.338;2022-12-18T02:22:29;34.18;;;16.73;;
26516;SDS011;14190;51.342;6.338;2022-12-18T02:25:05;37.98;;;17.02;;
26516;SDS011;14190;51.342;6.338;2022-12-18T02:27:30;34.67;;;16.90;;
26516;SDS011;14190;51.342;6.338;2022-12-18T02:29:59;34.15;;;15.38;;
26516;SDS011;14190;51.342;6.338;2022-12-18T02:32:30;43.05;;;18.23;;
26516;SDS011;14190;51.342;6.338;2022-12-18T02:34:57;32.83;;;16.15;;
26516;SDS011;14190;51.342;6.338;2022-12-18T02:37:26;32.37;;;12.83;;
26516;SDS011;14190;51.342;6.338;2022-12-18T02:39:55;38.78;;;17.07;;
26516;SDS011;14190;51.342;6.338;2022-12-18T02:42:24;36.30;;;16.07;;
26516;SDS011;14190;51.342;6.338;2022-12-18T02:44:51;35.58;;;16.35;;
26516;SDS011;14190;51.342;6.338;2022-12-18T02:47:21;38.17;;;18.55;;
26516;SDS011;14190;51.342;6.338;2022-12-18T02:52:39;43.87;;;18.57;;
26516;SDS011;14190;51.342;6.338;2022-12-18T02:55:14;43.63;;;19.42;;
26516;SDS011;14190;51.342;6.338;2022-12-18T02:57:42;43.13;;;18.45;;
26516;SDS011;14190;51.342;6.338;2022-12-18T03:00:13;40.28;;;18.60;;
26516;SDS011;14190;51.342;6.338;2022-12-18T03:05:23;41.90;;;19.27;;
26516;SDS011;14190;51.342;6.338;2022-12-18T03:07:59;36.65;;;16.87;;
26516;SDS011;14190;51.342;6.338;2022-12-18T03:10:29;38.92;;;18.00;;
26516;SDS011;14190;51.342;6.338;2022-12-18T03:13:04;45.30;;;18.95;;
26516;SDS011;14190;51.342;6.338;2022-12-18T03:15:38;41.70;;;18.95;;
26516;SDS011;14190;51.342;6.338;2022-12-18T03:18:04;37.63;;;17.73;;
26516;SDS011;14190;51.342;6.338;2022-12-18T03:20:32;41.35;;;18.45;;
26516;SDS011;14190;51.342;6.338;2022-12-18T03:23:13;41.92;;;18.73;;
26516;SDS011;14190;51.342;6.338;2022-12-18T03:25:38;43.35;;;18.48;;
26516;SDS011;14190;51.342;6.338;2022-12-18T03:28:07;42.30;;;17.70;;
26516;SDS011;14190;51.342;6.338;2022-12-18T03:30:36;43.15;;;18.45;;
26516;SDS011;14190;51.342;6.338;2022-12-18T03:33:06;45.00;;;18.48;;
26516;SDS011;14190;51.342;6.338;2022-12-18T03:35:35;45.03;;;17.85;;
26516;SDS011;14190;51.342;6.338;2022-12-18T03:38:04;38.48;;;17.75;;
26516;SDS011;14190;51.342;6.338;2022-12-18T03:40:35;42.15;;;16.23;;
26516;SDS011;14190;51.342;6.338;2022-12-18T03:43:03;38.73;;;17.03;;
26516;SDS011;14190;51.342;6.338;2022-12-18T03:48:01;41.77;;;18.20;;
26516;SDS011;14190;51.342;6.338;2022-12-18T03:50:34;35.43;;;16.55;;
26516;SDS011;14190;51.342;6.338;2022-12-18T03:55:44;36.10;;;16.12;;
26516;SDS011;14190;51.342;6.338;2022-12-18T03:58:13;36.68;;;16.48;;
26516;SDS011;14190;51.342;6.338;2022-12-18T04:00:46;38.75;;;17.57;;
26516;SDS011;14190;51.342;6.338;2022-12-18T04:03:15;42.58;;;17.82;;
26516;SDS011;14190;51.342;6.338;2022-12-18T04:05:45;37.65;;;17.52;;
26516;SDS011;14190;51.342;6.338;2022-12-18T04:08:14;40.08;;;16.25;;
26516;SDS011;14190;51.342;6.338;2022-12-18T04:10:43;36.60;;;17.80;;
26516;SDS011;14190;51.342;6.338;2022-12-18T04:13:11;34.25;;;16.65;;
26516;SDS011;14190;51.342;6.338;2022-12-18T04:15:40;38.60;;;17.48;;
26516;SDS011;14190;51.342;6.338;2022-12-18T04:18:09;33.67;;;17.10;;
26516;SDS011;14190;51.342;6.338;2022-12-18T04:20:38;36.88;;;16.80;;
26516;SDS011;14190;51.342;6.338;2022-12-18T04:23:06;39.88;;;18.15;;
26516;SDS011;14190;51.342;6.338;2022-12-18T04:25:33;34.67;;;17.00;;
26516;SDS011;14190;51.342;6.338;2022-12-18T04:28:05;38.80;;;17.77;;
26516;SDS011;14190;51.342;6.338;2022-12-18T04:30:33;33.53;;;17.37;;
26516;SDS011;14190;51.342;6.338;2022-12-18T04:33:00;39.58;;;19.17;;
26516;SDS011;14190;51.342;6.338;2022-12-18T04:35:29;34.73;;;15.73;;
26516;SDS011;14190;51.342;6.338;2022-12-18T04:37:57;29.77;;;15.18;;
26516;SDS011;14190;51.342;6.338;2022-12-18T04:40:24;36.05;;;16.50;;
26516;SDS011;14190;51.342;6.338;2022-12-18T04:42:51;36.58;;;15.98;;
26516;SDS011;14190;51.342;6.338;2022-12-18T04:45:19;39.30;;;16.15;;
26516;SDS011;14190;51.342;6.338;2022-12-18T04:47:46;32.93;;;15.65;;
26516;SDS011;14190;51.342;6.338;2022-12-18T04:50:14;36.35;;;17.45;;
26516;SDS011;14190;51.342;6.338;2022-12-18T04:52:41;37.83;;;17.42;;
26516;SDS011;14190;51.342;6.338;2022-12-18T04:55:08;35.00;;;17.70;;
26516;SDS011;14190;51.342;6.338;2022-12-18T04:57:36;36.55;;;17.65;;
26516;SDS011;14190;51.342;6.338;2022-12-18T05:00:03;43.15;;;18.07;;
26516;SDS011;14190;51.342;6.338;2022-12-18T05:02:32;33.02;;;17.67;;
26516;SDS011;14190;51.342;6.338;2022-12-18T05:04:59;40.95;;;17.42;;
26516;SDS011;14190;51.342;6.338;2022-12-18T05:07:27;36.65;;;17.27;;
26516;SDS011;14190;51.342;6.338;2022-12-18T05:09:54;34.85;;;16.10;;
26516;SDS011;14190;51.342;6.338;2022-12-18T05:12:24;31.02;;;15.95;;
26516;SDS011;14190;51.342;6.338;2022-12-18T05:14:51;35.92;;;16.17;;
26516;SDS011;14190;51.342;6.338;2022-12-18T05:17:19;33.50;;;15.08;;
26516;SDS011;14190;51.342;6.338;2022-12-18T05:19:46;37.93;;;17.15;;
26516;SDS011;14190;51.342;6.338;2022-12-18T05:22:14;34.67;;;17.02;;
26516;SDS011;14190;51.342;6.338;2022-12-18T05:24:41;36.30;;;16.65;;
26516;SDS011;14190;51.342;6.338;2022-12-18T05:27:09;41.35;;;19.05;;
26516;SDS011;14190;51.342;6.338;2022-12-18T05:29:36;37.00;;;17.50;;
26516;SDS011;14190;51.342;6.338;2022-12-18T05:32:03;33.58;;;17.02;;
26516;SDS011;14190;51.342;6.338;2022-12-18T05:34:31;32.08;;;15.58;;
26516;SDS011;14190;51.342;6.338;2022-12-18T05:36:59;37.05;;;16.23;;
26516;SDS011;14190;51.342;6.338;2022-12-18T05:39:27;37.85;;;16.65;;
26516;SDS011;14190;51.342;6.338;2022-12-18T05:41:54;38.28;;;17.85;;
26516;SDS011;14190;51.342;6.338;2022-12-18T05:44:22;33.90;;;16.00;;
26516;SDS011;14190;51.342;6.338;2022-12-18T05:46:49;32.78;;;16.15;;
26516;SDS011;14190;51.342;6.338;2022-12-18T05:49:16;33.23;;;17.12;;
26516;SDS011;14190;51.342;6.338;2022-12-18T05:51:44;40.60;;;18.77;;
26516;SDS011;14190;51.342;6.338;2022-12-18T05:54:12;40.88;;;19.07;;
26516;SDS011;14190;51.342;6.338;2022-12-18T05:56:39;40.48;;;19.30;;
26516;SDS011;14190;51.342;6.338;2022-12-18T05:59:07;35.63;;;16.97;;
26516;SDS011;14190;51.342;6.338;2022-12-18T06:01:34;37.70;;;18.57;;
26516;SDS011;14190;51.342;6.338;2022-12-18T06:04:01;39.27;;;17.52;;
26516;SDS011;14190;51.342;6.338;2022-12-18T06:06:29;39.25;;;18.12;;
26516;SDS011;14190;51.342;6.338;2022-12-18T06:08:56;39.80;;;17.37;;
26516;SDS011;14190;51.342;6.338;2022-12-18T06:11:25;39.58;;;18.40;;
26516;SDS011;14190;51.342;6.338;2022-12-18T06:13:53;41.28;;;18.92;;
26516;SDS011;14190;51.342;6.338;2022-12-18T06:16:21;39.10;;;18.17;;
26516;SDS011;14190;51.342;6.338;2022-12-18T06:18:49;40.08;;;17.85;;
26516;SDS011;14190;51.342;6.338;2022-12-18T06:21:16;40.50;;;18.77;;
26516;SDS011;14190;51.342;6.338;2022-12-18T06:23:43;34.60;;;16.62;;
26516;SDS011;14190;51.342;6.338;2022-12-18T06:26:11;42.60;;;19.52;;
26516;SDS011;14190;51.342;6.338;2022-12-18T06:28:38;39.23;;;19.02;;
26516;SDS011;14190;51.342;6.338;2022-12-18T06:31:06;38.48;;;18.27;;
26516;SDS011;14190;51.342;6.338;2022-12-18T06:33:34;39.08;;;17.85;;
26516;SDS011;14190;51.342;6.338;2022-12-18T06:36:07;41.25;;;18.60;;
26516;SDS011;14190;51.342;6.338;2022-12-18T06:38:31;37.00;;;18.50;;
26516;SDS011;14190;51.342;6.338;2022-12-18T06:40:59;38.70;;;16.97;;
26516;SDS011;14190;51.342;6.338;2022-12-18T06:43:26;42.78;;;18.48;;
26516;SDS011;14190;51.342;6.338;2022-12-18T06:46:00;40.25;;;19.00;;
26516;SDS011;14190;51.342;6.338;2022-12-18T06:48:27;54.90;;;24.43;;
26516;SDS011;14190;51.342;6.338;2022-12-18T06:50:55;50.03;;;22.93;;
26516;SDS011;14190;51.342;6.338;2022-12-18T06:53:22;55.88;;;27.73;;
26516;SDS011;14190;51.342;6.338;2022-12-18T06:55:49;50.78;;;24.98;;
26516;SDS011;14190;51.342;6.338;2022-12-18T06:58:17;45.25;;;21.23;;
26516;SDS011;14190;51.342;6.338;2022-12-18T07:00:44;38.38;;;18.82;;
26516;SDS011;14190;51.342;6.338;2022-12-18T07:03:12;36.08;;;17.75;;
26516;SDS011;14190;51.342;6.338;2022-12-18T07:05:40;37.33;;;18.57;;
26516;SDS011;14190;51.342;6.338;2022-12-18T07:08:08;41.23;;;17.60;;
26516;SDS011;14190;51.342;6.338;2022-12-18T07:10:44;39.83;;;18.60;;
26516;SDS011;14190;51.342;6.338;2022-12-18T07:13:04;48.23;;;20.57;;
26516;SDS011;14190;51.342;6.338;2022-12-18T07:15:31;39.35;;;17.07;;
26516;SDS011;14190;51.342;6.338;2022-12-18T07:17:59;36.80;;;17.73;;
26516;SDS011;14190;51.342;6.338;2022-12-18T07:20:26;40.00;;;18.42;;
26516;SDS011;14190;51.342;6.338;2022-12-18T07:22:54;43.00;;;19.35;;
26516;SDS011;14190;51.342;6.338;2022-12-18T07:25:21;37.98;;;18.42;;
26516;SDS011;14190;51.342;6.338;2022-12-18T07:27:48;39.63;;;17.60;;
26516;SDS011;14190;51.342;6.338;2022-12-18T07:30:16;42.58;;;20.23;;
26516;SDS011;14190;51.342;6.338;2022-12-18T07:32:43;45.63;;;20.40;;
26516;SDS011;14190;51.342;6.338;2022-12-18T07:35:10;42.75;;;19.80;;
26516;SDS011;14190;51.342;6.338;2022-12-18T07:37:38;33.38;;;17.75;;
26516;SDS011;14190;51.342;6.338;2022-12-18T07:40:05;42.05;;;19.40;;
26516;SDS011;14190;51.342;6.338;2022-12-18T07:42:33;44.98;;;18.67;;
26516;SDS011;14190;51.342;6.338;2022-12-18T07:45:02;47.03;;;20.80;;
26516;SDS011;14190;51.342;6.338;2022-12-18T07:47:36;43.92;;;19.77;;
26516;SDS011;14190;51.342;6.338;2022-12-18T07:50:03;39.67;;;19.57;;
26516;SDS011;14190;51.342;6.338;2022-12-18T07:52:31;40.40;;;16.67;;
26516;SDS011;14190;51.342;6.338;2022-12-18T07:54:58;39.15;;;17.57;;
26516;SDS011;14190;51.342;6.338;2022-12-18T07:57:26;44.20;;;18.85;;
26516;SDS011;14190;51.342;6.338;2022-12-18T07:59:53;46.10;;;19.25;;
26516;SDS011;14190;51.342;6.338;2022-12-18T08:02:20;41.13;;;18.23;;
26516;SDS011;14190;51.342;6.338;2022-12-18T08:04:48;47.85;;;17.80;;
26516;SDS011;14190;51.342;6.338;2022-12-18T08:07:15;34.78;;;16.05;;
26516;SDS011;14190;51.342;6.338;2022-12-18T08:09:42;35.75;;;17.77;;
26516;SDS011;14190;51.342;6.338;2022-12-18T08:12:10;38.53;;;18.95;;
26516;SDS011;14190;51.342;6.338;2022-12-18T08:14:37;42.60;;;19.20;;
26516;SDS011;14190;51.342;6.338;2022-12-18T08:17:04;37.13;;;17.23;;
26516;SDS011;14190;51.342;6.338;2022-12-18T08:19:32;41.00;;;17.75;;
26516;SDS011;14190;51.342;6.338;2022-12-18T08:21:59;38.83;;;18.23;;
26516;SDS011;14190;51.342;6.338;2022-12-18T08:24:26;43.98;;;19.27;;
26516;SDS011;14190;51.342;6.338;2022-12-18T08:26:54;42.65;;;19.75;;
26516;SDS011;14190;51.342;6.338;2022-12-18T08:29:23;37.38;;;17.50;;
26516;SDS011;14190;51.342;6.338;2022-12-18T08:31:50;37.05;;;17.12;;
26516;SDS011;14190;51.342;6.338;2022-12-18T08:34:18;38.90;;;17.60;;
26516;SDS011;14190;51.342;6.338;2022-12-18T08:36:45;41.05;;;18.65;;
26516;SDS011;14190;51.342;6.338;2022-12-18T08:39:12;35.28;;;17.85;;
26516;SDS011;14190;51.342;6.338;2022-12-18T08:41:40;35.33;;;16.93;;
26516;SDS011;14190;51.342;6.338;2022-12-18T08:44:07;44.73;;;18.70;;
26516;SDS011;14190;51.342;6.338;2022-12-18T08:46:53;41.77;;;20.70;;
26516;SDS011;14190;51.342;6.338;2022-12-18T08:49:20;35.20;;;17.52;;
26516;SDS011;14190;51.342;6.338;2022-12-18T08:51:48;31.48;;;15.90;;
26516;SDS011;14190;51.342;6.338;2022-12-18T08:54:15;33.65;;;16.85;;
26516;SDS011;14190;51.342;6.338;2022-12-18T08:56:43;38.58;;;19.02;;
26516;SDS011;14190;51.342;6.338;2022-12-18T08:59:10;35.52;;;17.30;;
26516;SDS011;14190;51.342;6.338;2022-12-18T09:01:37;32.83;;;15.32;;
26516;SDS011;14190;51.342;6.338;2022-12-18T09:04:05;34.78;;;17.48;;
26516;SDS011;14190;51.342;6.338;2022-12-18T09:06:32;34.20;;;17.12;;
26516;SDS011;14190;51.342;6.338;2022-12-18T09:08:59;34.63;;;16.57;;
26516;SDS011;14190;51.342;6.338;2022-12-18T09:11:27;35.75;;;16.67;;
26516;SDS011;14190;51.342;6.338;2022-12-18T09:13:55;35.48;;;17.42;;
26516;SDS011;14190;51.342;6.338;2022-12-18T09:16:23;32.73;;;15.10;;
26516;SDS011;14190;51.342;6.338;2022-12-18T09:18:51;34.10;;;17.73;;
26516;SDS011;14190;51.342;6.338;2022-12-18T09:21:20;33.57;;;15.63;;
26516;SDS011;14190;51.342;6.338;2022-12-18T09:23:51;37.50;;;17.17;;
26516;SDS011;14190;51.342;6.338;2022-12-18T09:26:19;36.30;;;17.95;;
26516;SDS011;14190;51.342;6.338;2022-12-18T09:28:46;39.42;;;18.07;;
26516;SDS011;14190;51.342;6.338;2022-12-18T09:31:14;44.18;;;20.20;;
26516;SDS011;14190;51.342;6.338;2022-12-18T09:33:41;44.18;;;20.95;;
26516;SDS011;14190;51.342;6.338;2022-12-18T09:36:10;40.17;;;18.67;;
26516;SDS011;14190;51.342;6.338;2022-12-18T09:38:38;34.57;;;15.37;;
26516;SDS011;14190;51.342;6.338;2022-12-18T09:41:13;37.70;;;19.45;;
26516;SDS011;14190;51.342;6.338;2022-12-18T09:43:41;36.20;;;17.35;;
26516;SDS011;14190;51.342;6.338;2022-12-18T09:46:07;37.45;;;17.75;;
26516;SDS011;14190;51.342;6.338;2022-12-18T09:48:36;41.02;;;17.60;;
26516;SDS011;14190;51.342;6.338;2022-12-18T09:51:09;30.30;;;15.25;;
26516;SDS011;14190;51.342;6.338;2022-12-18T09:53:34;36.53;;;17.30;;
26516;SDS011;14190;51.342;6.338;2022-12-18T09:56:01;39.45;;;17.20;;
26516;SDS011;14190;51.342;6.338;2022-12-18T09:58:31;38.70;;;19.82;;
26516;SDS011;14190;51.342;6.338;2022-12-18T10:01:00;35.73;;;17.60;;
26516;SDS011;14190;51.342;6.338;2022-12-18T10:03:27;41.85;;;17.77;;
26516;SDS011;14190;51.342;6.338;2022-12-18T10:08:45;37.85;;;18.25;;
26516;SDS011;14190;51.342;6.338;2022-12-18T10:11:21;36.77;;;16.48;;
26516;SDS011;14190;51.342;6.338;2022-12-18T10:13:46;51.30;;;22.13;;
26516;SDS011;14190;51.342;6.338;2022-12-18T10:16:16;43.28;;;19.20;;
26516;SDS011;14190;51.342;6.338;2022-12-18T10:19:10;45.15;;;20.08;;
26516;SDS011;14190;51.342;6.338;2022-12-18T10:21:15;37.55;;;17.62;;
26516;SDS011;14190;51.342;6.338;2022-12-18T10:24:30;46.20;;;20.25;;
26516;SDS011;14190;51.342;6.338;2022-12-18T10:26:12;37.00;;;15.30;;
26516;SDS011;14190;51.342;6.338;2022-12-18T10:28:40;32.60;;;15.63;;
26516;SDS011;14190;51.342;6.338;2022-12-18T10:31:12;33.53;;;15.95;;
26516;SDS011;14190;51.342;6.338;2022-12-18T10:33:36;31.12;;;16.25;;
26516;SDS011;14190;51.342;6.338;2022-12-18T10:36:04;37.08;;;16.60;;
26516;SDS011;14190;51.342;6.338;2022-12-18T10:38:32;35.05;;;18.12;;
26516;SDS011;14190;51.342;6.338;2022-12-18T10:43:33;37.10;;;19.48;;
26516;SDS011;14190;51.342;6.338;2022-12-18T10:48:56;34.10;;;17.17;;
26516;SDS011;14190;51.342;6.338;2022-12-18T10:51:35;34.78;;;17.23;;
26516;SDS011;14190;51.342;6.338;2022-12-18T10:54:00;44.93;;;18.87;;
26516;SDS011;14190;51.342;6.338;2022-12-18T10:56:28;35.43;;;16.93;;
26516;SDS011;14190;51.342;6.338;2022-12-18T10:58:58;34.25;;;17.90;;
26516;SDS011;14190;51.342;6.338;2022-12-18T11:01:25;37.50;;;18.92;;
26516;SDS011;14190;51.342;6.338;2022-12-18T11:06:23;38.33;;;17.85;;
26516;SDS011;14190;51.342;6.338;2022-12-18T11:08:58;37.60;;;18.85;;
26516;SDS011;14190;51.342;6.338;2022-12-18T11:11:25;45.65;;;19.50;;
26516;SDS011;14190;51.342;6.338;2022-12-18T11:16:26;39.08;;;19.23;;
26516;SDS011;14190;51.342;6.338;2022-12-18T11:18:53;47.78;;;21.23;;
26516;SDS011;14190;51.342;6.338;2022-12-18T11:21:21;41.35;;;19.32;;
26516;SDS011;14190;51.342;6.338;2022-12-18T11:23:52;43.45;;;19.48;;
26516;SDS011;14190;51.342;6.338;2022-12-18T11:26:20;53.15;;;21.80;;
26516;SDS011;14190;51.342;6.338;2022-12-18T11:31:21;35.10;;;17.77;;
26516;SDS011;14190;51.342;6.338;2022-12-18T11:34:32;35.33;;;16.67;;
26516;SDS011;14190;51.342;6.338;2022-12-18T11:36:21;34.20;;;16.80;;
26516;SDS011;14190;51.342;6.338;2022-12-18T11:38:49;33.92;;;16.07;;
26516;SDS011;14190;51.342;6.338;2022-12-18T11:41:28;32.88;;;15.68;;
26516;SDS011;14190;51.342;6.338;2022-12-18T11:44:32;36.25;;;17.02;;
26516;SDS011;14190;51.342;6.338;2022-12-18T11:47:03;35.23;;;16.02;;
26516;SDS011;14190;51.342;6.338;2022-12-18T11:49:34;31.95;;;13.43;;
26516;SDS011;14190;51.342;6.338;2022-12-18T11:52:18;38.65;;;19.07;;
26516;SDS011;14190;51.342;6.338;2022-12-18T11:54:55;36.23;;;18.62;;
26516;SDS011;14190;51.342;6.338;2022-12-18T12:00:09;36.63;;;17.40;;
26516;SDS011;14190;51.342;6.338;2022-12-18T12:05:28;38.67;;;19.27;;
26516;SDS011;14190;51.342;6.338;2022-12-18T12:08:07;49.15;;;24.10;;
26516;SDS011;14190;51.342;6.338;2022-12-18T12:10:35;40.45;;;21.25;;
26516;SDS011;14190;51.342;6.338;2022-12-18T12:13:20;48.25;;;21.40;;
26516;SDS011;14190;51.342;6.338;2022-12-18T12:15:51;40.90;;;20.25;;
26516;SDS011;14190;51.342;6.338;2022-12-18T12:23:43;39.45;;;17.50;;
26516;SDS011;14190;51.342;6.338;2022-12-18T12:26:10;35.50;;;17.40;;
26516;SDS011;14190;51.342;6.338;2022-12-18T12:29:00;40.73;;;19.48;;
26516;SDS011;14190;51.342;6.338;2022-12-18T12:39:35;40.78;;;20.72;;
26516;SDS011;14190;51.342;6.338;2022-12-18T12:42:13;43.98;;;18.95;;
26516;SDS011;14190;51.342;6.338;2022-12-18T12:44:58;41.63;;;20.92;;
26516;SDS011;14190;51.342;6.338;2022-12-18T12:47:32;36.93;;;18.00;;
26516;SDS011;14190;51.342;6.338;2022-12-18T12:49:55;42.83;;;19.00;;
26516;SDS011;14190;51.342;6.338;2022-12-18T12:52:31;53.08;;;25.50;;
26516;SDS011;14190;51.342;6.338;2022-12-18T12:54:58;48.10;;;22.17;;
26516;SDS011;14190;51.342;6.338;2022-12-18T12:57:34;48.28;;;22.27;;
26516;SDS011;14190;51.342;6.338;2022-12-18T13:02:41;54.42;;;23.20;;
26516;SDS011;14190;51.342;6.338;2022-12-18T13:05:09;41.90;;;21.73;;
26516;SDS011;14190;51.342;6.338;2022-12-18T13:07:41;44.98;;;20.88;;
26516;SDS011;14190;51.342;6.338;2022-12-18T13:15:28;41.37;;;19.73;;
26516;SDS011;14190;51.342;6.338;2022-12-18T13:18:02;37.63;;;20.32;;
26516;SDS011;14190;51.342;6.338;2022-12-18T13:20:20;38.30;;;20.70;;
26516;SDS011;14190;51.342;6.338;2022-12-18T13:22:48;40.35;;;19.57;;
26516;SDS011;14190;51.342;6.338;2022-12-18T13:25:32;36.73;;;18.02;;
26516;SDS011;14190;51.342;6.338;2022-12-18T13:28:13;44.95;;;19.55;;
26516;SDS011;14190;51.342;6.338;2022-12-18T13:38:24;44.23;;;21.27;;
26516;SDS011;14190;51.342;6.338;2022-12-18T13:43:27;42.35;;;21.48;;
26516;SDS011;14190;51.342;6.338;2022-12-18T13:48:37;42.05;;;21.90;;
26516;SDS011;14190;51.342;6.338;2022-12-18T13:51:06;64.35;;;31.25;;
26516;SDS011;14190;51.342;6.338;2022-12-18T13:53:38;40.90;;;19.77;;
26516;SDS011;14190;51.342;6.338;2022-12-18T13:56:05;54.95;;;25.35;;
26516;SDS011;14190;51.342;6.338;2022-12-18T13:58:33;45.43;;;21.33;;
26516;SDS011;14190;51.342;6.338;2022-12-18T14:01:00;85.25;;;38.28;;
26516;SDS011;14190;51.342;6.338;2022-12-18T14:03:29;79.40;;;35.75;;
26516;SDS011;14190;51.342;6.338;2022-12-18T14:11:04;109.50;;;41.68;;
26516;SDS011;14190;51.342;6.338;2022-12-18T14:13:35;81.78;;;37.25;;
26516;SDS011;14190;51.342;6.338;2022-12-18T14:16:03;52.08;;;26.85;;
26516;SDS011;14190;51.342;6.338;2022-12-18T14:18:37;54.30;;;26.77;;
26516;SDS011;14190;51.342;6.338;2022-12-18T14:21:03;97.00;;;45.38;;
26516;SDS011;14190;51.342;6.338;2022-12-18T14:26:00;78.72;;;35.70;;
26516;SDS011;14190;51.342;6.338;2022-12-18T14:28:28;52.55;;;24.75;;
26516;SDS011;14190;51.342;6.338;2022-12-18T14:30:56;48.73;;;22.48;;
26516;SDS011;14190;51.342;6.338;2022-12-18T14:33:24;68.35;;;32.25;;
26516;SDS011;14190;51.342;6.338;2022-12-18T14:38:26;84.67;;;33.55;;
26516;SDS011;14190;51.342;6.338;2022-12-18T14:41:10;46.37;;;22.02;;
26516;SDS011;14190;51.342;6.338;2022-12-18T14:43:32;73.45;;;32.33;;
26516;SDS011;14190;51.342;6.338;2022-12-18T14:46:00;54.23;;;26.82;;
26516;SDS011;14190;51.342;6.338;2022-12-18T14:48:35;61.73;;;27.50;;
26516;SDS011;14190;51.342;6.338;2022-12-18T14:51:05;48.28;;;25.12;;
26516;SDS011;14190;51.342;6.338;2022-12-18T14:53:36;64.82;;;29.57;;
26516;SDS011;14190;51.342;6.338;2022-12-18T14:56:26;79.35;;;33.83;;
26516;SDS011;14190;51.342;6.338;2022-12-18T14:58:33;58.60;;;26.70;;
26516;SDS011;14190;51.342;6.338;2022-12-18T15:01:01;52.95;;;24.37;;
26516;SDS011;14190;51.342;6.338;2022-12-18T15:03:28;62.45;;;27.60;;
26516;SDS011;14190;51.342;6.338;2022-12-18T15:05:56;57.95;;;25.52;;
26516;SDS011;14190;51.342;6.338;2022-12-18T15:08:30;78.07;;;31.90;;
26516;SDS011;14190;51.342;6.338;2022-12-18T15:10:58;66.62;;;28.92;;
26516;SDS011;14190;51.342;6.338;2022-12-18T15:13:25;58.60;;;27.17;;
26516;SDS011;14190;51.342;6.338;2022-12-18T15:15:53;74.67;;;29.35;;
26516;SDS011;14190;51.342;6.338;2022-12-18T15:18:23;62.38;;;28.50;;
26516;SDS011;14190;51.342;6.338;2022-12-18T15:20:54;52.62;;;23.32;;
26516;SDS011;14190;51.342;6.338;2022-12-18T15:23:24;61.28;;;29.20;;
26516;SDS011;14190;51.342;6.338;2022-12-18T15:25:59;49.25;;;20.62;;
26516;SDS011;14190;51.342;6.338;2022-12-18T15:28:29;53.02;;;26.73;;
26516;SDS011;14190;51.342;6.338;2022-12-18T15:33:41;52.25;;;25.72;;
26516;SDS011;14190;51.342;6.338;2022-12-18T15:36:10;47.93;;;27.50;;
26516;SDS011;14190;51.342;6.338;2022-12-18T15:38:37;50.58;;;23.35;;
26516;SDS011;14190;51.342;6.338;2022-12-18T15:41:12;49.58;;;24.55;;
26516;SDS011;14190;51.342;6.338;2022-12-18T15:43:40;48.20;;;23.10;;
26516;SDS011;14190;51.342;6.338;2022-12-18T15:46:19;56.35;;;26.65;;
26516;SDS011;14190;51.342;6.338;2022-12-18T15:48:46;50.30;;;24.67;;
26516;SDS011;14190;51.342;6.338;2022-12-18T15:51:18;58.08;;;27.22;;
26516;SDS011;14190;51.342;6.338;2022-12-18T15:53:46;56.20;;;26.62;;
26516;SDS011;14190;51.342;6.338;2022-12-18T15:56:14;51.63;;;23.83;;